createdAt,value
2022-07-29T00:01:23.101Z,50.41
2022-07-29T00:03:45.974Z,50.53
2022-07-29T00:06:08.764Z,50.58
2022-07-29T00:08:31.682Z,50.75
2022-07-29T00:10:54.404Z,51.24
2022-07-29T00:13:17.070Z,50.85
2022-07-29T00:15:39.681Z,51.02
2022-07-29T00:18:02.366Z,50.88
2022-07-29T00:20:25.286Z,51.01
2022-07-29T00:22:48.050Z,51.37
2022-07-29T00:25:10.874Z,51.47
2022-07-29T00:27:33.713Z,51.46
2022-07-29T00:29:56.287Z,51.59
2022-07-29T00:32:18.971Z,51.69
2022-07-29T00:35:00.277Z,51.78
2022-07-29T00:37:23.016Z,52.14
2022-07-29T00:39:45.740Z,52.08
2022-07-29T00:42:09.003Z,52.38
2022-07-29T00:44:31.526Z,52.33
2022-07-29T00:46:54.185Z,52.63
2022-07-29T00:49:16.885Z,52.47
2022-07-29T00:51:40.067Z,52.70
2022-07-29T00:54:04.147Z,52.78
2022-07-29T00:56:26.917Z,52.87
2022-07-29T00:58:52.540Z,52.97
2022-07-29T01:01:15.325Z,52.95
2022-07-29T01:03:37.954Z,53.28
2022-07-29T01:06:01.323Z,53.30
2022-07-29T01:08:24.752Z,53.19
2022-07-29T01:10:48.356Z,53.14
2022-07-29T01:13:12.164Z,53.19
2022-07-29T01:15:48.896Z,53.64
2022-07-29T01:18:22.047Z,53.50
2022-07-29T01:21:06.588Z,53.61
2022-07-29T01:24:06.532Z,53.62
2022-07-29T01:26:41.084Z,53.70
2022-07-29T01:29:17.982Z,53.52
2022-07-29T01:32:22.579Z,53.50
2022-07-29T01:34:55.511Z,53.65
2022-07-29T01:37:33.980Z,53.67
2022-07-29T01:39:59.915Z,53.59
2022-07-29T01:42:45.242Z,53.41
2022-07-29T01:45:18.248Z,53.71
2022-07-29T01:47:55.846Z,53.79
2022-07-29T01:50:22.416Z,53.61
2022-07-29T01:52:57.929Z,53.77
2022-07-29T01:55:23.290Z,53.77
2022-07-29T01:57:48.645Z,53.80
2022-07-29T02:00:12.778Z,54.11
2022-07-29T02:02:38.120Z,53.57
2022-07-29T02:05:02.627Z,53.57
2022-07-29T02:07:29.588Z,53.65
2022-07-29T02:09:53.897Z,53.66
2022-07-29T02:12:18.873Z,53.79
2022-07-29T02:14:45.643Z,53.96
2022-07-29T02:17:09.020Z,53.61
2022-07-29T02:19:33.999Z,53.91
2022-07-29T02:21:58.660Z,53.80
2022-07-29T02:24:23.433Z,53.98
2022-07-29T02:26:46.766Z,54.29
2022-07-29T02:29:10.861Z,54.36
2022-07-29T02:31:37.294Z,54.60
2022-07-29T02:34:01.710Z,54.41
2022-07-29T02:36:25.979Z,54.96
2022-07-29T02:38:52.754Z,54.66
2022-07-29T02:41:19.541Z,54.92
2022-07-29T02:43:44.781Z,55.02
2022-07-29T02:46:29.395Z,55.23
2022-07-29T02:49:18.352Z,55.51
2022-07-29T02:51:53.954Z,55.70
2022-07-29T02:54:47.230Z,56.07
2022-07-29T02:57:25.396Z,55.82
2022-07-29T02:59:52.571Z,56.26
2022-07-29T03:02:16.347Z,56.25
2022-07-29T03:04:42.633Z,56.31
2022-07-29T03:07:06.436Z,56.30
2022-07-29T03:09:30.255Z,56.52
2022-07-29T03:11:55.430Z,56.44
2022-07-29T03:14:20.591Z,56.47
2022-07-29T03:16:43.888Z,56.66
2022-07-29T03:19:06.834Z,56.70
2022-07-29T03:21:29.413Z,56.59
2022-07-29T03:23:52.232Z,56.87
2022-07-29T03:26:15.124Z,56.99
2022-07-29T03:28:37.929Z,56.98
2022-07-29T03:31:02.444Z,57.22
2022-07-29T03:33:25.246Z,56.88
2022-07-29T03:35:47.906Z,57.05
2022-07-29T03:38:10.709Z,57.12
2022-07-29T03:40:57.107Z,57.33
2022-07-29T03:43:21.333Z,57.28
2022-07-29T03:45:46.777Z,56.92
2022-07-29T03:48:13.760Z,57.14
2022-07-29T03:50:36.740Z,57.73
2022-07-29T03:52:59.918Z,57.20
2022-07-29T03:55:23.193Z,57.22
2022-07-29T03:57:46.879Z,57.12
2022-07-29T04:00:10.518Z,57.22
2022-07-29T04:02:33.918Z,57.21
2022-07-29T04:04:57.040Z,57.13
2022-07-29T04:07:19.864Z,56.93
2022-07-29T04:09:43.501Z,57.22
2022-07-29T04:12:06.416Z,56.91
2022-07-29T04:14:28.928Z,56.90
2022-07-29T04:16:51.522Z,56.97
2022-07-29T04:19:14.492Z,56.94
2022-07-29T04:21:57.966Z,57.09
2022-07-29T04:24:21.079Z,56.91
2022-07-29T04:26:46.133Z,56.70
2022-07-29T04:29:08.846Z,56.75
2022-07-29T04:31:31.535Z,56.69
2022-07-29T04:33:54.257Z,56.83
2022-07-29T04:36:28.795Z,56.17
2022-07-29T04:38:52.483Z,56.12
2022-07-29T04:41:15.218Z,55.58
2022-07-29T04:43:43.317Z,55.66
2022-07-29T04:46:07.779Z,54.67
2022-07-29T04:48:30.977Z,54.92
2022-07-29T04:50:53.587Z,54.58
2022-07-29T04:53:16.295Z,54.60
2022-07-29T04:55:39.033Z,53.52
2022-07-29T04:58:01.900Z,53.17
2022-07-29T05:00:28.061Z,52.24
2022-07-29T05:02:56.124Z,51.82
2022-07-29T05:05:18.822Z,52.60
2022-07-29T05:07:41.930Z,51.58
2022-07-29T05:10:05.115Z,52.17
2022-07-29T05:12:28.688Z,52.00
2022-07-29T05:14:52.201Z,51.54
2022-07-29T05:17:15.481Z,52.15
2022-07-29T05:19:39.538Z,51.49
2022-07-29T05:22:02.538Z,51.44
2022-07-29T05:24:25.228Z,51.74
2022-07-29T05:26:53.072Z,51.55
2022-07-29T05:29:44.172Z,51.89
2022-07-29T05:31:58.379Z,52.15
2022-07-29T05:34:21.256Z,51.62
2022-07-29T05:36:44.009Z,50.86
2022-07-29T05:39:06.553Z,51.95
2022-07-29T05:41:30.047Z,50.67
2022-07-29T05:43:52.892Z,50.39
2022-07-29T05:46:16.223Z,49.15
2022-07-29T05:48:39.951Z,49.27
2022-07-29T05:51:02.886Z,47.53
2022-07-29T05:53:25.595Z,48.50
2022-07-29T05:56:08.870Z,48.88
2022-07-29T05:58:31.757Z,49.02
2022-07-29T06:00:54.947Z,48.61
2022-07-29T06:03:17.512Z,48.62
2022-07-29T06:05:40.094Z,48.37
2022-07-29T06:08:02.739Z,49.13
2022-07-29T06:10:26.953Z,48.41
2022-07-29T06:12:49.658Z,49.02
2022-07-29T06:15:12.260Z,48.33
2022-07-29T06:17:35.020Z,48.45
2022-07-29T06:19:57.935Z,48.08
2022-07-29T06:22:20.670Z,47.35
2022-07-29T06:24:44.918Z,47.63
2022-07-29T06:27:07.569Z,47.60
2022-07-29T06:29:30.154Z,48.07
2022-07-29T06:31:52.811Z,49.11
2022-07-29T06:34:15.508Z,48.76
2022-07-29T06:36:39.688Z,48.62
2022-07-29T06:39:05.458Z,48.42
2022-07-29T06:41:28.650Z,48.79
2022-07-29T06:43:54.575Z,48.82
2022-07-29T06:46:20.999Z,47.87
2022-07-29T06:48:43.984Z,47.74
2022-07-29T06:51:07.177Z,46.71
2022-07-29T06:53:30.560Z,46.84
2022-07-29T06:55:53.271Z,46.79
2022-07-29T06:58:18.883Z,47.09
2022-07-29T07:00:51.380Z,47.47
2022-07-29T07:03:14.348Z,48.29
2022-07-29T07:05:36.900Z,48.24
2022-07-29T07:07:59.643Z,47.16
2022-07-29T07:10:22.309Z,46.98
2022-07-29T07:12:46.699Z,46.86
2022-07-29T07:15:09.630Z,47.18
2022-07-29T07:17:32.163Z,46.84
2022-07-29T07:19:54.692Z,47.08
2022-07-29T07:22:17.493Z,47.61
2022-07-29T07:24:40.239Z,46.88
2022-07-29T07:27:03.123Z,47.55
2022-07-29T07:29:25.951Z,47.30
2022-07-29T07:31:48.678Z,46.82
2022-07-29T07:34:11.310Z,46.60
2022-07-29T07:36:34.036Z,46.47
2022-07-29T07:38:56.829Z,45.82
2022-07-29T07:41:19.528Z,44.28
2022-07-29T07:43:42.243Z,44.92
2022-07-29T07:46:05.522Z,45.53
2022-07-29T07:48:28.149Z,45.50
2022-07-29T07:50:51.602Z,45.99
2022-07-29T07:53:14.522Z,45.23
2022-07-29T07:56:09.252Z,46.12
2022-07-29T07:58:28.066Z,45.77
2022-07-29T08:00:50.861Z,45.14
2022-07-29T08:03:17.053Z,45.20
2022-07-29T08:05:40.018Z,44.21
2022-07-29T08:08:02.647Z,45.13
2022-07-29T08:10:44.069Z,44.15
2022-07-29T08:13:08.259Z,44.20
2022-07-29T08:15:30.871Z,44.24
2022-07-29T08:17:53.620Z,44.91
2022-07-29T08:20:16.255Z,44.12
2022-07-29T08:22:38.934Z,44.44
2022-07-29T08:25:01.684Z,44.02
2022-07-29T08:27:43.006Z,44.00
2022-07-29T08:30:07.868Z,44.09
2022-07-29T08:32:52.489Z,43.18
2022-07-29T08:35:14.928Z,42.28
2022-07-29T08:37:37.623Z,42.29
2022-07-29T08:40:00.365Z,42.92
2022-07-29T08:42:23.019Z,42.85
2022-07-29T08:44:46.036Z,41.47
2022-07-29T08:47:08.953Z,41.73
2022-07-29T08:49:33.860Z,41.63
2022-07-29T08:51:58.477Z,41.50
2022-07-29T08:54:23.459Z,41.62
2022-07-29T08:56:50.772Z,40.56
2022-07-29T08:59:14.727Z,40.01
2022-07-29T09:01:42.860Z,40.33
2022-07-29T09:04:12.389Z,40.81
2022-07-29T09:06:38.017Z,41.99
2022-07-29T09:09:01.303Z,40.16
2022-07-29T09:11:24.283Z,40.67
2022-07-29T09:13:47.598Z,39.85
2022-07-29T09:16:10.941Z,39.41
2022-07-29T09:18:42.141Z,39.77
2022-07-29T09:21:25.186Z,38.71
2022-07-29T09:24:20.170Z,37.92
2022-07-29T09:26:45.114Z,37.67
2022-07-29T09:29:16.079Z,37.77
2022-07-29T09:31:41.457Z,38.01
2022-07-29T09:34:05.114Z,37.15
2022-07-29T09:36:28.443Z,37.24
2022-07-29T09:39:04.232Z,36.51
2022-07-29T09:41:28.337Z,36.48
2022-07-29T09:44:00.780Z,37.43
2022-07-29T09:46:24.727Z,36.50
2022-07-29T09:49:07.319Z,36.61
2022-07-29T09:51:38.269Z,35.23
2022-07-29T09:54:04.509Z,36.22
2022-07-29T09:56:41.106Z,35.56
2022-07-29T09:59:09.792Z,35.50
2022-07-29T10:01:32.392Z,35.78
2022-07-29T10:03:55.130Z,35.56
2022-07-29T10:06:17.796Z,35.32
2022-07-29T10:08:42.951Z,33.99
2022-07-29T10:11:17.473Z,34.18
2022-07-29T10:13:41.879Z,33.96
2022-07-29T10:16:04.996Z,34.60
2022-07-29T10:18:28.153Z,33.02
2022-07-29T10:20:51.399Z,32.87
2022-07-29T10:23:15.021Z,33.29
2022-07-29T10:25:38.034Z,32.54
2022-07-29T10:28:00.936Z,33.38
2022-07-29T10:30:25.789Z,32.34
2022-07-29T10:33:07.801Z,32.15
2022-07-29T10:35:52.138Z,32.33
2022-07-29T10:38:48.422Z,31.54
2022-07-29T10:41:32.443Z,31.08
2022-07-29T10:44:17.211Z,32.11
2022-07-29T10:46:42.402Z,31.43
2022-07-29T10:49:15.319Z,32.09
2022-07-29T10:52:08.272Z,31.34
2022-07-29T10:54:42.461Z,30.82
2022-07-29T10:57:53.381Z,31.09
2022-07-29T11:00:12.528Z,32.11
2022-07-29T11:02:43.940Z,31.81
2022-07-29T11:05:14.641Z,32.08
2022-07-29T11:07:42.614Z,31.49
2022-07-29T11:10:15.392Z,30.53
2022-07-29T11:12:39.513Z,32.08
2022-07-29T11:15:03.711Z,30.97
2022-07-29T11:17:27.223Z,30.77
2022-07-29T11:20:34.142Z,31.44
2022-07-29T11:23:00.037Z,32.62
2022-07-29T11:25:43.071Z,31.93
2022-07-29T11:28:22.807Z,31.13
2022-07-29T11:30:50.751Z,31.35
2022-07-29T11:33:54.208Z,31.80
2022-07-29T11:36:16.745Z,31.82
2022-07-29T11:38:41.630Z,31.41
2022-07-29T11:41:36.876Z,30.50
2022-07-29T11:44:01.388Z,31.05
2022-07-29T11:46:47.917Z,30.73
2022-07-29T11:49:11.646Z,30.76
2022-07-29T11:51:48.284Z,30.45
2022-07-29T11:54:15.732Z,30.19
2022-07-29T11:56:44.679Z,29.38
2022-07-29T11:59:10.221Z,28.02
2022-07-29T12:04:14.185Z,29.91
2022-07-29T12:06:36.997Z,28.22
2022-07-29T12:09:01.206Z,29.29
2022-07-29T12:11:23.873Z,30.29
2022-07-29T12:13:46.470Z,30.77
2022-07-29T12:16:14.645Z,30.70
2022-07-29T12:18:37.473Z,30.68
2022-07-29T12:21:04.676Z,31.14
2022-07-29T12:23:29.344Z,31.39
2022-07-29T12:25:59.480Z,31.06
2022-07-29T12:28:26.867Z,31.48
2022-07-29T12:30:51.715Z,30.00
2022-07-29T12:33:18.629Z,31.42
2022-07-29T12:35:42.537Z,31.09
2022-07-29T12:38:05.772Z,31.04
2022-07-29T12:40:28.441Z,30.20
2022-07-29T12:43:10.533Z,30.31
2022-07-29T12:45:33.274Z,30.71
2022-07-29T12:47:55.863Z,30.62
2022-07-29T12:50:22.141Z,30.24
2022-07-29T12:52:47.335Z,30.89
2022-07-29T12:55:09.950Z,31.25
2022-07-29T12:57:33.097Z,32.69
2022-07-29T13:00:14.051Z,31.70
2022-07-29T13:02:37.549Z,31.36
2022-07-29T13:05:01.512Z,31.85
2022-07-29T13:07:54.395Z,30.38
2022-07-29T13:10:19.690Z,30.22
2022-07-29T13:13:12.899Z,30.09
2022-07-29T13:15:36.279Z,29.93
2022-07-29T13:17:59.408Z,30.33
2022-07-29T13:20:25.790Z,30.93
2022-07-29T13:22:49.494Z,30.61
2022-07-29T13:25:12.648Z,30.60
2022-07-29T13:27:37.447Z,30.79
2022-07-29T13:30:02.054Z,30.73
2022-07-29T13:32:28.210Z,30.74
2022-07-29T13:34:51.487Z,30.51
2022-07-29T13:37:14.197Z,30.93
2022-07-29T13:39:38.525Z,30.67
2022-07-29T13:42:01.603Z,30.69
2022-07-29T13:44:24.391Z,30.09
2022-07-29T13:46:46.894Z,30.28
2022-07-29T13:49:09.694Z,30.70
2022-07-29T13:51:32.400Z,31.59
2022-07-29T13:53:55.089Z,31.83
2022-07-29T13:56:17.671Z,32.36
2022-07-29T13:58:40.902Z,31.74
2022-07-29T14:01:03.740Z,31.98
2022-07-29T14:03:26.669Z,31.82
2022-07-29T14:05:49.316Z,31.21
2022-07-29T14:08:11.969Z,31.57
2022-07-29T14:10:34.495Z,31.82
2022-07-29T14:12:57.217Z,29.87
2022-07-29T14:15:19.736Z,30.14
2022-07-29T14:17:42.418Z,28.93
2022-07-29T14:20:05.839Z,29.43
2022-07-29T14:22:28.837Z,29.34
2022-07-29T14:24:51.545Z,29.43
2022-07-29T14:27:14.304Z,30.81
2022-07-29T14:29:38.886Z,30.26
2022-07-29T14:32:02.271Z,29.60
2022-07-29T14:34:25.460Z,31.53
2022-07-29T14:36:48.061Z,29.86
2022-07-29T14:39:10.741Z,30.44
2022-07-29T14:41:33.837Z,29.79
2022-07-29T14:43:56.517Z,30.04
2022-07-29T14:46:19.305Z,29.41
2022-07-29T14:48:41.986Z,29.44
2022-07-29T14:51:05.566Z,29.60
2022-07-29T14:53:28.843Z,29.17
2022-07-29T14:55:51.796Z,30.01
2022-07-29T14:58:16.694Z,29.28
2022-07-29T15:00:39.552Z,29.13
2022-07-29T15:03:03.087Z,29.34
2022-07-29T15:05:26.584Z,29.20
2022-07-29T15:07:49.205Z,29.72
2022-07-29T15:10:11.913Z,28.98
2022-07-29T15:12:38.203Z,28.60
2022-07-29T15:15:00.836Z,28.02
2022-07-29T15:17:23.501Z,27.84
2022-07-29T15:19:46.045Z,28.45
2022-07-29T15:22:08.674Z,28.61
2022-07-29T15:24:31.564Z,29.38
2022-07-29T15:26:54.239Z,29.76
2022-07-29T15:29:17.259Z,29.96
2022-07-29T15:31:40.105Z,29.94
2022-07-29T15:34:06.293Z,29.90
2022-07-29T15:36:50.711Z,29.44
2022-07-29T15:39:12.227Z,30.14
2022-07-29T15:41:35.156Z,30.12
2022-07-29T15:43:57.792Z,30.19
2022-07-29T15:46:39.352Z,30.03
2022-07-29T15:49:03.523Z,29.91
2022-07-29T15:51:26.415Z,29.46
2022-07-29T15:53:53.370Z,30.43
2022-07-29T15:56:16.579Z,29.84
2022-07-29T15:58:39.201Z,30.50
2022-07-29T16:01:01.926Z,31.26
2022-07-29T16:03:24.792Z,30.97
2022-07-29T16:05:47.405Z,31.35
2022-07-29T16:08:10.287Z,31.41
2022-07-29T16:10:32.866Z,30.67
2022-07-29T16:12:55.519Z,31.20
2022-07-29T16:15:18.195Z,30.65
2022-07-29T16:17:40.941Z,30.50
2022-07-29T16:20:04.794Z,31.04
2022-07-29T16:22:27.559Z,31.13
2022-07-29T16:24:50.085Z,31.50
2022-07-29T16:27:12.832Z,31.56
2022-07-29T16:29:37.177Z,31.82
2022-07-29T16:31:59.939Z,31.36
2022-07-29T16:34:22.492Z,32.49
2022-07-29T16:37:06.116Z,31.99
2022-07-29T16:39:28.772Z,32.58
2022-07-29T16:41:51.371Z,32.56
2022-07-29T16:44:14.480Z,32.36
2022-07-29T16:46:37.437Z,32.35
2022-07-29T16:49:01.806Z,32.18
2022-07-29T16:51:24.495Z,33.45
2022-07-29T16:53:49.756Z,33.62
2022-07-29T16:56:13.228Z,34.08
2022-07-29T16:58:38.268Z,33.23
2022-07-29T17:01:01.956Z,33.85
2022-07-29T17:03:24.687Z,33.40
2022-07-29T17:05:50.661Z,33.90
2022-07-29T17:08:16.986Z,33.72
2022-07-29T17:10:39.646Z,34.17
2022-07-29T17:13:02.424Z,34.80
2022-07-29T17:15:25.151Z,34.60
2022-07-29T17:17:55.450Z,34.40
2022-07-29T17:20:19.325Z,34.37
2022-07-29T17:22:43.042Z,34.17
2022-07-29T17:25:06.975Z,34.38
2022-07-29T17:27:29.607Z,34.30
2022-07-29T17:29:52.562Z,33.95
2022-07-29T17:32:15.139Z,33.92
2022-07-29T17:34:39.783Z,34.37
2022-07-29T17:37:02.801Z,35.32
2022-07-29T17:39:25.471Z,35.17
2022-07-29T17:41:48.063Z,35.24
2022-07-29T17:44:10.762Z,35.44
2022-07-29T17:46:33.481Z,35.70
2022-07-29T17:48:57.513Z,35.63
2022-07-29T17:51:20.686Z,35.66
2022-07-29T17:53:43.593Z,35.78
2022-07-29T17:56:06.469Z,36.18
2022-07-29T17:58:29.035Z,36.33
2022-07-29T18:00:51.971Z,36.22
2022-07-29T18:03:15.096Z,35.92
2022-07-29T18:05:37.808Z,36.26
2022-07-29T18:08:00.835Z,36.75
2022-07-29T18:10:23.499Z,36.56
2022-07-29T18:12:46.088Z,36.94
2022-07-29T18:15:09.041Z,36.69
2022-07-29T18:17:34.507Z,36.84
2022-07-29T18:20:15.046Z,37.49
2022-07-29T18:22:37.834Z,38.04
2022-07-29T18:25:00.740Z,38.18
2022-07-29T18:27:26.004Z,38.63
2022-07-29T18:29:51.020Z,39.24
2022-07-29T18:32:13.865Z,39.55
2022-07-29T18:34:36.600Z,39.29
2022-07-29T18:36:59.590Z,39.10
2022-07-29T18:39:22.748Z,38.91
2022-07-29T18:41:50.018Z,39.34
2022-07-29T18:44:17.000Z,39.32
2022-07-29T18:46:40.075Z,39.21
2022-07-29T18:49:10.078Z,38.80
2022-07-29T18:51:33.165Z,38.96
2022-07-29T18:53:55.821Z,39.50
2022-07-29T18:56:18.542Z,39.70
2022-07-29T18:58:41.287Z,39.55
2022-07-29T19:01:04.015Z,39.56
2022-07-29T19:03:26.684Z,39.32
2022-07-29T19:05:49.560Z,39.22
2022-07-29T19:08:12.275Z,39.51
2022-07-29T19:10:34.870Z,40.09
2022-07-29T19:12:58.008Z,40.34
2022-07-29T19:15:20.800Z,40.58
2022-07-29T19:17:43.631Z,40.87
2022-07-29T19:20:07.564Z,41.20
2022-07-29T19:22:30.373Z,41.77
2022-07-29T19:24:53.413Z,42.32
2022-07-29T19:27:17.279Z,42.85
2022-07-29T19:29:39.987Z,42.68
2022-07-29T19:32:02.708Z,43.29
2022-07-29T19:34:25.297Z,43.08
2022-07-29T19:36:47.918Z,42.94
2022-07-29T19:39:11.518Z,43.18
2022-07-29T19:41:34.419Z,44.03
2022-07-29T19:43:57.365Z,44.12
2022-07-29T19:46:23.784Z,44.32
2022-07-29T19:48:46.578Z,44.47
2022-07-29T19:51:09.293Z,44.64
2022-07-29T19:53:32.969Z,44.26
2022-07-29T19:55:55.660Z,44.80
2022-07-29T19:58:18.212Z,44.99
2022-07-29T20:00:45.391Z,45.10
2022-07-29T20:03:08.118Z,45.62
2022-07-29T20:05:31.425Z,45.18
2022-07-29T20:07:54.209Z,45.51
2022-07-29T20:10:17.055Z,45.50
2022-07-29T20:12:39.620Z,43.79
2022-07-29T20:15:02.240Z,44.21
2022-07-29T20:17:27.283Z,43.06
2022-07-29T20:19:52.967Z,42.82
2022-07-29T20:22:21.082Z,42.94
2022-07-29T20:24:45.358Z,42.57
2022-07-29T20:27:13.611Z,42.73
2022-07-29T20:29:38.398Z,43.13
2022-07-29T20:32:01.483Z,43.95
2022-07-29T20:34:24.207Z,45.05
2022-07-29T20:36:48.707Z,46.03
2022-07-29T20:39:11.318Z,46.97
2022-07-29T20:41:33.997Z,47.96
2022-07-29T20:43:56.844Z,48.15
2022-07-29T20:46:19.650Z,48.05
2022-07-29T20:48:42.477Z,47.53
2022-07-29T20:51:05.272Z,47.44
2022-07-29T20:53:28.038Z,47.30
2022-07-29T20:55:51.329Z,46.98
2022-07-29T20:58:14.353Z,47.18
2022-07-29T21:00:37.367Z,46.89
2022-07-29T21:03:00.062Z,47.46
2022-07-29T21:05:22.790Z,46.59
2022-07-29T21:07:45.696Z,46.61
2022-07-29T21:10:08.541Z,46.69
2022-07-29T21:12:31.514Z,47.01
2022-07-29T21:14:54.164Z,47.47
2022-07-29T21:17:17.533Z,47.65
2022-07-29T21:19:43.767Z,47.71
2022-07-29T21:22:06.396Z,47.87
2022-07-29T21:24:29.261Z,48.28
2022-07-29T21:27:18.263Z,48.39
2022-07-29T21:29:35.224Z,48.64
2022-07-29T21:31:57.774Z,49.07
2022-07-29T21:34:20.417Z,49.26
2022-07-29T21:36:48.333Z,49.24
2022-07-29T21:39:11.382Z,49.47
2022-07-29T21:41:34.465Z,49.55
2022-07-29T21:43:58.301Z,49.70
2022-07-29T21:46:24.599Z,49.92
2022-07-29T21:48:47.410Z,50.57
2022-07-29T21:51:10.073Z,50.48
2022-07-29T21:53:32.755Z,50.99
2022-07-29T21:55:55.609Z,51.02
2022-07-29T21:58:18.587Z,50.91
2022-07-29T22:00:42.224Z,50.95
2022-07-29T22:03:05.519Z,50.93
2022-07-29T22:05:29.029Z,51.06
2022-07-29T22:07:56.320Z,51.03
2022-07-29T22:10:19.633Z,51.31
2022-07-29T22:12:42.330Z,51.30
2022-07-29T22:15:05.255Z,51.37
2022-07-29T22:17:28.544Z,51.78
2022-07-29T22:19:52.028Z,52.01
2022-07-29T22:22:14.799Z,52.27
2022-07-29T22:24:37.648Z,52.37
2022-07-29T22:27:00.523Z,52.85
2022-07-29T22:29:23.324Z,52.95
2022-07-29T22:31:46.145Z,52.90
2022-07-29T22:34:12.741Z,53.29
2022-07-29T22:36:35.432Z,53.70
2022-07-29T22:38:57.990Z,53.74
2022-07-29T22:41:20.814Z,53.80
2022-07-29T22:43:43.385Z,54.28
2022-07-29T22:46:11.531Z,55.09
2022-07-29T22:48:34.454Z,54.67
2022-07-29T22:50:57.094Z,55.33
2022-07-29T22:53:19.685Z,55.16
2022-07-29T22:55:42.386Z,55.36
2022-07-29T22:58:05.351Z,55.66
2022-07-29T23:00:28.191Z,55.96
2022-07-29T23:02:50.698Z,56.32
2022-07-29T23:05:15.705Z,56.75
2022-07-29T23:07:38.525Z,56.71
2022-07-29T23:10:01.502Z,57.13
2022-07-29T23:12:24.160Z,57.43
2022-07-29T23:14:46.713Z,57.91
2022-07-29T23:17:09.467Z,58.01
2022-07-29T23:19:32.620Z,58.05
2022-07-29T23:21:55.256Z,58.08
2022-07-29T23:24:17.979Z,58.36
2022-07-29T23:26:40.930Z,58.86
2022-07-29T23:29:04.061Z,58.92
2022-07-29T23:31:26.671Z,59.29
2022-07-29T23:33:49.222Z,59.36
2022-07-29T23:36:11.867Z,59.48
2022-07-29T23:38:34.609Z,59.73
2022-07-29T23:41:08.943Z,60.08
2022-07-29T23:43:31.619Z,60.10
2022-07-29T23:45:54.301Z,60.35
2022-07-29T23:48:17.511Z,60.74
2022-07-29T23:50:40.149Z,60.90
2022-07-29T23:53:02.780Z,61.13
2022-07-29T23:55:38.181Z,61.38
2022-07-29T23:58:02.975Z,61.56
